Pineville, MO

6:02 AM CDT on July 31, 2016 (GMT -0500)
FryeComp -2 Mi/S SWC | | Change Station

Elev 1138 ft 36.48 °N, 94.61 °W | Updated 33 days ago

Thunderstorm
Thunderstorm
75 °F
Feels Like 75 °F
N
5
Wind Variable Wind from SSE
Gusts 9 mph

Today
High -- | Low -- °F
--% Chance of Precip.
Yesterday
High -- | Low -- °F
Precip. -- in
Pressure 30.00 in
Visibility 10.0 miles
Clouds Few 6500 ft
Dew Point 72 °F
Humidity 88%
Rainfall in
Snow Depth Not available.
6:23 AM 8:23 PM
Waning Crescent, 7% visible
METAR KVBT 311055Z AUTO 16006KT 10SM FEW065 22/18 A3000 RMK AO1
Pressure 30.00 in
Visibility 10.0 miles
Clouds Few 6500 ft
Dew Point 72 °F
Humidity 88%
Rainfall in
Snow Depth Not available.
6:23 AM 8:23 PM
Waning Crescent, 7% visible
METAR KVBT 311055Z AUTO 16006KT 10SM FEW065 22/18 A3000 RMK AO1

10-Day Weather Forecast

Almanac

Astronomy

Jul. 31, 2016 Rise Set
Actual Time
Civil Twilight
Nautical Twilight
Astronomical Twilight
Moon
Length of Visible Light
Length of Day
Tomorrow will be .
, % of the Moon is Illuminated

Today's Extremes

State Highs State Lows

Community

WunderPhotos

Upload Photos

1,928,787 photos uploaded!

WunderBlog® & News

Nearby

Air Quality

  Air Quality AQ Index Pollutant
Not available.

Snow Depth

Station Depth Elevation

Earthquake Activity

City Distance Mag. Time & Date
Minimum magnitude displayed is 2.5.

Coastal Water Temperatures

Place Temperature

Stations

Nearby Weather Stations

Station Location Temp. Windchill Dew Point Humidity Wind Precip. Elev Updated Type
                   

Watches & Warnings

There are currently no watches in effect.